Ottershaw, United Kingdom
Current Conditions -  °F | °C
As of 10:50 AM on Friday 19 Dec 2014 (Local Time) from EGLL Reporting Station
Clear Clear  
Wind Chill: 43°   Ceiling: Unl
Heat Index: 48°   Visibility: 6mi
Dew Point: 37°   Wind: 13mph
Humidity: 66%   Direction: 290°WNW
Pressure: 30"   Gusts: NA
Location:  51.36°N, 0.53°W
Report Text: EGLL 191050Z 29011KT CAVOK 09/03 Q1016 NOSIG
Loading
Personal Weather Stations






























Interactive Weather Map New forecast layout! Learn more

10-Day Weather Forecast

Advertisements
Track Severe Weather on mobile